Time;durP1;ratioP1;P1;durP2;ratioP2;P2;SDS_P1;SDS_P2;PMS_P1;PMS_P2;Temp;Humidity;BMP_temperature;BMP_pressure;BME280_temperature;BME280_humidity;BME280_pressure;Samples;Min_cycle;Max_cycle;Signal;HPM_P1;HPM_P2
2021/01/08 00:01:59;;;;;;;12.00;7.20;;;;;;;;;;5058918;28;20444;-68
2021/01/08 00:04:29;;;;;;;13.20;8.53;;;;;;;;;;5058568;28;20537;-68
2021/01/08 00:06:58;;;;;;;11.97;8.37;;;;;;;;;;5058595;28;20804;-67
2021/01/08 00:09:25;;;;;;;13.63;7.57;;;;;;;;;;5058636;28;20460;-67
2021/01/08 00:11:55;;;;;;;12.47;8.03;;;;;;;;;;5058142;28;20950;-67
2021/01/08 00:14:22;;;;;;;13.33;8.43;;;;;;;;;;5058234;28;20489;-67
2021/01/08 00:16:49;;;;;;;11.90;7.80;;;;;;;;;;5058271;28;20902;-68
2021/01/08 00:19:16;;;;;;;12.33;7.70;;;;;;;;;;5058540;28;20449;-67
2021/01/08 00:21:44;;;;;;;13.43;8.03;;;;;;;;;;5058284;28;20451;-67
2021/01/08 00:24:12;;;;;;;14.00;8.37;;;;;;;;;;5058337;28;20497;-67
2021/01/08 00:26:40;;;;;;;12.53;7.73;;;;;;;;;;5058081;28;20445;-68
2021/01/08 00:29:07;;;;;;;12.57;7.57;;;;;;;;;;5058383;28;20456;-68
2021/01/08 00:31:38;;;;;;;13.77;8.33;;;;;;;;;;5058148;28;20477;-67
2021/01/08 00:34:06;;;;;;;14.10;8.33;;;;;;;;;;5055655;28;20556;-68
2021/01/08 00:36:33;;;;;;;12.53;7.73;;;;;;;;;;5057988;28;20452;-67
2021/01/08 00:39:00;;;;;;;14.43;8.27;;;;;;;;;;5057635;28;20552;-68
2021/01/08 00:41:28;;;;;;;10.90;7.73;;;;;;;;;;5057607;28;20477;-68
2021/01/08 00:43:55;;;;;;;10.93;7.33;;;;;;;;;;5057567;28;20916;-68
2021/01/08 00:46:29;;;;;;;11.93;7.10;;;;;;;;;;5056795;28;20437;-67
2021/01/08 00:48:59;;;;;;;12.40;7.33;;;;;;;;;;5057837;28;20819;-67
2021/01/08 00:51:26;;;;;;;14.10;8.93;;;;;;;;;;5052915;28;20445;-67
2021/01/08 00:53:53;;;;;;;15.80;8.27;;;;;;;;;;5057798;28;20540;-67
2021/01/08 00:56:20;;;;;;;14.00;7.90;;;;;;;;;;5057337;28;20441;-67
2021/01/08 00:58:48;;;;;;;11.07;7.53;;;;;;;;;;5057677;28;20438;-67
2021/01/08 01:01:15;;;;;;;15.07;7.80;;;;;;;;;;5057722;28;20444;-68
2021/01/08 01:03:42;;;;;;;13.10;8.53;;;;;;;;;;5057933;28;20446;-67
2021/01/08 01:06:10;;;;;;;13.47;8.00;;;;;;;;;;5057657;28;20485;-68
2021/01/08 01:08:37;;;;;;;14.83;8.30;;;;;;;;;;5057871;28;20456;-67
2021/01/08 01:11:04;;;;;;;16.10;8.90;;;;;;;;;;5057105;28;20796;-68
2021/01/08 01:13:31;;;;;;;13.37;7.77;;;;;;;;;;5057492;28;20489;-67
2021/01/08 01:15:59;;;;;;;14.40;8.23;;;;;;;;;;5057657;28;20536;-67
2021/01/08 01:18:26;;;;;;;15.60;8.10;;;;;;;;;;5057824;28;20529;-67
2021/01/08 01:20:53;;;;;;;13.50;8.17;;;;;;;;;;5057430;28;20503;-67
2021/01/08 01:23:19;;;;;;;12.57;8.33;;;;;;;;;;5057647;28;20452;-67
2021/01/08 01:25:46;;;;;;;13.13;8.27;;;;;;;;;;5057265;28;20469;-68
2021/01/08 01:28:13;;;;;;;15.33;9.10;;;;;;;;;;5057567;28;20540;-67
2021/01/08 01:30:40;;;;;;;15.27;8.93;;;;;;;;;;5057305;28;20911;-67
2021/01/08 01:33:08;;;;;;;14.83;8.37;;;;;;;;;;5057522;28;20564;-67
2021/01/08 01:35:35;;;;;;;15.27;8.37;;;;;;;;;;5057208;28;20453;-68
2021/01/08 01:38:02;;;;;;;14.17;8.53;;;;;;;;;;5057321;28;20473;-67
2021/01/08 01:40:29;;;;;;;15.40;8.33;;;;;;;;;;5056989;28;20568;-68
2021/01/08 01:42:56;;;;;;;13.17;7.77;;;;;;;;;;5057391;28;20445;-67
2021/01/08 01:45:23;;;;;;;13.40;7.43;;;;;;;;;;5057089;28;20536;-68
2021/01/08 01:47:50;;;;;;;11.93;7.90;;;;;;;;;;5057562;28;20489;-67
2021/01/08 01:50:18;;;;;;;16.03;8.50;;;;;;;;;;5057384;28;20445;-67
2021/01/08 01:52:46;;;;;;;12.93;8.17;;;;;;;;;;5057428;28;20452;-67
2021/01/08 01:55:13;;;;;;;16.63;9.00;;;;;;;;;;5056849;28;20974;-68
2021/01/08 01:57:40;;;;;;;13.70;8.00;;;;;;;;;;5059503;28;20893;-67
2021/01/08 02:00:08;;;;;;;14.93;7.30;;;;;;;;;;5061084;28;20827;-67
2021/01/08 02:02:37;;;;;;;12.63;8.17;;;;;;;;;;5060963;28;20880;-67
2021/01/08 02:05:05;;;;;;;13.50;8.07;;;;;;;;;;5061138;28;20467;-67
2021/01/08 02:07:34;;;;;;;14.20;8.20;;;;;;;;;;5060800;28;20831;-67
2021/01/08 02:10:02;;;;;;;14.27;8.00;;;;;;;;;;5060760;28;20429;-67
2021/01/08 02:12:30;;;;;;;14.80;8.20;;;;;;;;;;5060859;28;20455;-67
2021/01/08 02:14:58;;;;;;;17.03;8.93;;;;;;;;;;5060558;28;20488;-67
2021/01/08 02:17:27;;;;;;;13.60;7.90;;;;;;;;;;5060841;28;20520;-67
2021/01/08 02:19:59;;;;;;;15.53;8.70;;;;;;;;;;5060638;28;20916;-67
2021/01/08 02:22:29;;;;;;;19.20;8.70;;;;;;;;;;5060745;28;20449;-67
2021/01/08 02:25:02;;;;;;;13.47;8.43;;;;;;;;;;5060406;28;20552;-67
2021/01/08 02:27:31;;;;;;;15.57;9.30;;;;;;;;;;5060625;28;20452;-67
2021/01/08 02:29:58;;;;;;;14.93;9.10;;;;;;;;;;5060548;28;20459;-67
2021/01/08 02:32:25;;;;;;;13.77;8.20;;;;;;;;;;5060306;28;20452;-67
2021/01/08 02:34:53;;;;;;;16.33;7.87;;;;;;;;;;5060035;28;20588;-67
2021/01/08 02:37:20;;;;;;;12.03;7.70;;;;;;;;;;5060331;28;20468;-68
2021/01/08 02:39:47;;;;;;;12.73;8.27;;;;;;;;;;5059966;28;20887;-67
2021/01/08 02:42:16;;;;;;;14.23;9.60;;;;;;;;;;5060265;28;20524;-67
2021/01/08 02:44:43;;;;;;;14.03;8.80;;;;;;;;;;5060217;28;20896;-67
2021/01/08 02:47:10;;;;;;;16.70;9.23;;;;;;;;;;5056866;28;20498;-67
2021/01/08 02:49:37;;;;;;;14.73;8.83;;;;;;;;;;5059935;28;20477;-67
2021/01/08 02:52:06;;;;;;;17.20;8.30;;;;;;;;;;5060148;28;20453;-67
2021/01/08 02:54:33;;;;;;;14.50;9.50;;;;;;;;;;5059723;28;20487;-67
2021/01/08 02:57:02;;;;;;;15.03;8.83;;;;;;;;;;5060008;28;20446;-67
2021/01/08 02:59:30;;;;;;;14.33;8.23;;;;;;;;;;5060030;28;20449;-67
2021/01/08 03:01:57;;;;;;;16.00;8.90;;;;;;;;;;5059988;28;20464;-67
2021/01/08 03:04:24;;;;;;;16.90;9.13;;;;;;;;;;5059880;28;20457;-67
2021/01/08 03:06:51;;;;;;;13.60;9.33;;;;;;;;;;5059763;28;20448;-67
2021/01/08 03:09:18;;;;;;;14.30;8.20;;;;;;;;;;5058816;28;20445;-68
2021/01/08 03:11:52;;;;;;;13.80;8.83;;;;;;;;;;5059662;28;20452;-67
2021/01/08 03:14:20;;;;;;;17.07;9.37;;;;;;;;;;5059615;28;20481;-67
2021/01/08 03:16:47;;;;;;;15.20;8.87;;;;;;;;;;5059960;28;20456;-67
2021/01/08 03:19:15;;;;;;;15.57;9.47;;;;;;;;;;5059875;28;20442;-67
2021/01/08 03:21:43;;;;;;;17.83;10.13;;;;;;;;;;5059675;28;20452;-67
2021/01/08 03:24:11;;;;;;;14.50;8.60;;;;;;;;;;5059543;28;20465;-67
2021/01/08 03:26:38;;;;;;;15.47;9.07;;;;;;;;;;5058971;28;20445;-67
2021/01/08 03:29:05;;;;;;;15.33;8.63;;;;;;;;;;5059511;28;20450;-67
2021/01/08 03:31:32;;;;;;;17.30;9.77;;;;;;;;;;5059297;28;20478;-67
2021/01/08 03:33:59;;;;;;;22.07;9.43;;;;;;;;;;5059298;28;20484;-67
2021/01/08 03:36:28;;;;;;;19.40;10.37;;;;;;;;;;5059347;28;20512;-67
2021/01/08 03:38:55;;;;;;;18.27;9.80;;;;;;;;;;5058978;28;20481;-67
2021/01/08 03:41:22;;;;;;;15.50;8.87;;;;;;;;;;5058733;28;20425;-67
2021/01/08 03:43:49;;;;;;;18.83;9.20;;;;;;;;;;5058931;28;20532;-67
2021/01/08 03:46:16;;;;;;;15.13;9.53;;;;;;;;;;5059154;28;20437;-67
2021/01/08 03:48:43;;;;;;;16.70;9.73;;;;;;;;;;5058980;28;20433;-67
2021/01/08 03:51:11;;;;;;;18.17;9.83;;;;;;;;;;5059014;28;20952;-67
2021/01/08 03:53:38;;;;;;;15.50;9.37;;;;;;;;;;5058671;28;20493;-67
2021/01/08 03:56:05;;;;;;;15.27;9.47;;;;;;;;;;5058541;28;20517;-67
2021/01/08 03:58:32;;;;;;;17.13;9.53;;;;;;;;;;5058726;28;20525;-67
2021/01/08 04:00:59;;;;;;;16.33;9.83;;;;;;;;;;5058592;28;20997;-67
2021/01/08 04:03:26;;;;;;;16.77;9.57;;;;;;;;;;5058939;28;20445;-67
2021/01/08 04:05:53;;;;;;;17.20;9.07;;;;;;;;;;5058432;28;21037;-67
2021/01/08 04:08:21;;;;;;;17.20;10.20;;;;;;;;;;5058612;28;20456;-67
2021/01/08 04:10:48;;;;;;;15.53;9.33;;;;;;;;;;5058385;28;20448;-67
2021/01/08 04:13:15;;;;;;;17.90;10.00;;;;;;;;;;5058318;28;20805;-67
2021/01/08 04:15:42;;;;;;;16.40;9.83;;;;;;;;;;5058539;28;20472;-67
2021/01/08 04:18:09;;;;;;;17.57;9.87;;;;;;;;;;5058395;28;20453;-67
2021/01/08 04:20:36;;;;;;;18.07;9.43;;;;;;;;;;5058128;28;20436;-67
2021/01/08 04:23:03;;;;;;;18.97;10.73;;;;;;;;;;5058526;28;20509;-67
2021/01/08 04:25:31;;;;;;;16.90;9.93;;;;;;;;;;5058111;28;20461;-67
2021/01/08 04:27:58;;;;;;;20.17;9.70;;;;;;;;;;5058255;28;20433;-67
2021/01/08 04:30:25;;;;;;;16.37;9.00;;;;;;;;;;5058338;28;20941;-67
2021/01/08 04:32:52;;;;;;;17.03;10.63;;;;;;;;;;5058439;28;20449;-67
2021/01/08 04:35:19;;;;;;;18.07;10.13;;;;;;;;;;5057795;28;20489;-67
2021/01/08 04:37:46;;;;;;;17.57;10.27;;;;;;;;;;5058413;28;20481;-67
2021/01/08 04:40:13;;;;;;;17.23;9.50;;;;;;;;;;5057726;28;20433;-67
2021/01/08 04:42:41;;;;;;;16.43;9.73;;;;;;;;;;5057766;28;20475;-67
2021/01/08 04:45:11;;;;;;;18.57;9.80;;;;;;;;;;5055844;28;20465;-68
2021/01/08 04:47:38;;;;;;;17.03;10.80;;;;;;;;;;5055595;28;20929;-68
2021/01/08 04:50:06;;;;;;;19.80;10.03;;;;;;;;;;5053799;28;20468;-68
2021/01/08 04:52:33;;;;;;;19.70;10.50;;;;;;;;;;5051497;28;20460;-68
2021/01/08 04:55:00;;;;;;;19.30;9.27;;;;;;;;;;5055984;28;20545;-68
2021/01/08 04:57:28;;;;;;;21.90;11.33;;;;;;;;;;5056910;28;20437;-68
2021/01/08 04:59:55;;;;;;;16.07;10.00;;;;;;;;;;5054611;28;20454;-69
2021/01/08 05:02:22;;;;;;;16.13;9.47;;;;;;;;;;5057667;28;20437;-68
2021/01/08 05:04:50;;;;;;;17.77;10.10;;;;;;;;;;5057785;28;20548;-68
2021/01/08 05:07:17;;;;;;;17.13;10.27;;;;;;;;;;5057886;28;21048;-68
2021/01/08 05:09:44;;;;;;;20.27;10.07;;;;;;;;;;5057725;28;20445;-68
2021/01/08 05:12:11;;;;;;;22.27;11.40;;;;;;;;;;5057586;28;20553;-68
2021/01/08 05:14:38;;;;;;;20.30;10.93;;;;;;;;;;5057569;28;20569;-68
2021/01/08 05:17:06;;;;;;;17.90;10.87;;;;;;;;;;5057770;28;20975;-68
2021/01/08 05:19:34;;;;;;;18.53;11.27;;;;;;;;;;5057763;28;20800;-68
2021/01/08 05:22:01;;;;;;;18.33;10.80;;;;;;;;;;5057369;28;20544;-68
2021/01/08 05:24:29;;;;;;;21.40;10.60;;;;;;;;;;5057405;28;20468;-68
2021/01/08 05:27:01;;;;;;;17.97;10.47;;;;;;;;;;5057370;28;20453;-68
2021/01/08 05:29:28;;;;;;;20.03;11.30;;;;;;;;;;5057515;28;20437;-68
2021/01/08 05:31:55;;;;;;;18.27;11.37;;;;;;;;;;5058888;28;20455;-68
2021/01/08 05:34:25;;;;;;;18.67;11.03;;;;;;;;;;5061152;28;20561;-68
2021/01/08 05:36:53;;;;;;;18.57;10.37;;;;;;;;;;5061538;28;20528;-68
2021/01/08 05:39:21;;;;;;;20.60;11.97;;;;;;;;;;5059761;28;20557;-68
2021/01/08 05:41:48;;;;;;;18.90;11.33;;;;;;;;;;5058275;28;20580;-68
2021/01/08 05:44:16;;;;;;;21.07;11.07;;;;;;;;;;5064209;28;20463;-68
2021/01/08 05:46:47;;;;;;;16.63;10.83;;;;;;;;;;5063661;28;20487;-68
2021/01/08 05:49:16;;;;;;;16.47;10.60;;;;;;;;;;5061232;28;20480;-68
2021/01/08 05:51:44;;;;;;;18.63;9.97;;;;;;;;;;5061138;28;20450;-68
2021/01/08 05:54:11;;;;;;;19.33;11.73;;;;;;;;;;5060828;28;20517;-68
2021/01/08 05:56:39;;;;;;;37.57;21.63;;;;;;;;;;5060813;28;20476;-68
2021/01/08 05:59:06;;;;;;;19.70;10.73;;;;;;;;;;5061188;28;20495;-68
2021/01/08 06:01:33;;;;;;;20.00;11.13;;;;;;;;;;5061278;28;20457;-69
2021/01/08 06:04:01;;;;;;;16.90;9.60;;;;;;;;;;5058563;28;20981;-67
2021/01/08 06:06:38;;;;;;;20.23;10.50;;;;;;;;;;5060492;28;20443;-68
2021/01/08 06:09:07;;;;;;;20.67;11.23;;;;;;;;;;5060652;28;20548;-68
2021/01/08 06:11:35;;;;;;;23.17;11.00;;;;;;;;;;5060251;28;20532;-69
2021/01/08 06:14:03;;;;;;;21.73;11.93;;;;;;;;;;5060262;28;20543;-68
2021/01/08 06:16:35;;;;;;;18.10;10.10;;;;;;;;;;5060568;28;20453;-68
2021/01/08 06:19:02;;;;;;;20.67;11.70;;;;;;;;;;5060580;28;20452;-69
2021/01/08 06:21:34;;;;;;;19.23;10.57;;;;;;;;;;5060581;28;20535;-69
2021/01/08 06:24:01;;;;;;;19.43;11.03;;;;;;;;;;5060197;28;20955;-69
2021/01/08 06:26:30;;;;;;;18.90;10.63;;;;;;;;;;5060118;28;20453;-68
2021/01/08 06:29:00;;;;;;;15.27;9.80;;;;;;;;;;5060395;28;20963;-68
2021/01/08 06:31:35;;;;;;;21.37;10.27;;;;;;;;;;5060282;28;20457;-68
2021/01/08 06:34:02;;;;;;;18.13;8.97;;;;;;;;;;5059944;28;20596;-69
2021/01/08 06:36:30;;;;;;;22.67;11.50;;;;;;;;;;5052243;28;20456;-71
2021/01/08 06:38:57;;;;;;;17.43;9.77;;;;;;;;;;5058149;28;20488;-69
2021/01/08 06:41:24;;;;;;;22.50;10.10;;;;;;;;;;5059526;28;20853;-68
2021/01/08 06:43:54;;;;;;;18.40;9.93;;;;;;;;;;5059748;28;20452;-68
2021/01/08 06:46:38;;;;;;;17.93;9.83;;;;;;;;;;5049998;28;20945;-69
2021/01/08 06:49:07;;;;;;;16.07;9.90;;;;;;;;;;5046794;28;20540;-68
2021/01/08 06:51:34;;;;;;;16.93;10.83;;;;;;;;;;5057060;28;20512;-68
2021/01/08 06:54:02;;;;;;;21.80;11.40;;;;;;;;;;5055162;28;20481;-68
2021/01/08 06:56:30;;;;;;;17.67;10.13;;;;;;;;;;5059391;28;20485;-68
2021/01/08 06:58:58;;;;;;;18.47;11.00;;;;;;;;;;5059243;28;20449;-68
2021/01/08 07:01:31;;;;;;;16.70;10.40;;;;;;;;;;5057121;28;20525;-67
2021/01/08 07:03:59;;;;;;;18.67;9.93;;;;;;;;;;5058756;28;20507;-68
2021/01/08 07:06:27;;;;;;;18.30;11.00;;;;;;;;;;5059591;28;20457;-67
2021/01/08 07:08:54;;;;;;;17.47;11.33;;;;;;;;;;5059776;28;20491;-67
2021/01/08 07:11:23;;;;;;;19.20;11.20;;;;;;;;;;5059123;28;20887;-67
2021/01/08 07:13:50;;;;;;;21.70;10.97;;;;;;;;;;5059536;28;20449;-67
2021/01/08 07:16:21;;;;;;;17.70;9.80;;;;;;;;;;5059397;28;20459;-67
2021/01/08 07:18:48;;;;;;;19.57;11.07;;;;;;;;;;5059362;28;20448;-67
2021/01/08 07:21:22;;;;;;;16.97;10.03;;;;;;;;;;5059325;28;20446;-67
2021/01/08 07:23:51;;;;;;;18.10;10.03;;;;;;;;;;5059495;28;20449;-67
2021/01/08 07:26:18;;;;;;;23.37;13.53;;;;;;;;;;5059046;28;20522;-67
2021/01/08 07:28:50;;;;;;;17.73;9.90;;;;;;;;;;5059227;28;20464;-67
2021/01/08 07:31:30;;;;;;;19.73;11.20;;;;;;;;;;5059281;28;20456;-67
2021/01/08 07:33:58;;;;;;;20.20;11.53;;;;;;;;;;5058722;28;20857;-66
2021/01/08 07:36:25;;;;;;;17.07;9.90;;;;;;;;;;5058577;28;20442;-67
2021/01/08 07:38:53;;;;;;;18.40;10.83;;;;;;;;;;5064544;28;20475;-68
2021/01/08 07:41:36;;;;;;;18.30;10.80;;;;;;;;;;5058784;28;20461;-68
2021/01/08 07:44:05;;;;;;;20.40;11.20;;;;;;;;;;5058892;28;20452;-68
2021/01/08 07:46:34;;;;;;;15.87;9.87;;;;;;;;;;5058501;28;20809;-68
2021/01/08 07:49:02;;;;;;;17.30;10.97;;;;;;;;;;5059079;28;20445;-68
2021/01/08 07:51:45;;;;;;;20.00;11.53;;;;;;;;;;5058640;28;20488;-68
2021/01/08 07:54:12;;;;;;;19.93;10.60;;;;;;;;;;5065623;28;20481;-66
2021/01/08 07:57:06;;;;;;;17.87;10.77;;;;;;;;;;5055622;28;20446;-66
2021/01/08 07:59:33;;;;;;;17.43;10.20;;;;;;;;;;5023220;28;20441;-66
2021/01/08 08:02:01;;;;;;;16.10;9.50;;;;;;;;;;5058191;28;20559;-68
2021/01/08 08:04:29;;;;;;;17.43;10.03;;;;;;;;;;5045941;28;20465;-68
2021/01/08 08:07:00;;;;;;;18.97;9.83;;;;;;;;;;5058499;28;20461;-68
2021/01/08 08:09:27;;;;;;;16.57;10.33;;;;;;;;;;5058033;28;20460;-68
2021/01/08 08:11:55;;;;;;;16.67;9.90;;;;;;;;;;5058252;28;20473;-68
2021/01/08 08:14:22;;;;;;;18.80;9.27;;;;;;;;;;5058086;28;20488;-67
2021/01/08 08:16:50;;;;;;;19.83;10.63;;;;;;;;;;5058344;28;20507;-68
2021/01/08 08:19:18;;;;;;;17.90;9.47;;;;;;;;;;5058330;28;20453;-67
2021/01/08 08:21:46;;;;;;;19.43;10.20;;;;;;;;;;5058086;28;20445;-67
2021/01/08 08:24:16;;;;;;;20.90;11.20;;;;;;;;;;5058153;28;20465;-67
2021/01/08 08:26:45;;;;;;;15.57;8.60;;;;;;;;;;5058160;28;20445;-66
2021/01/08 08:29:12;;;;;;;19.93;10.80;;;;;;;;;;5057899;28;20452;-66
2021/01/08 08:31:40;;;;;;;18.47;9.43;;;;;;;;;;5058114;28;20477;-67
2021/01/08 08:34:08;;;;;;;17.90;9.43;;;;;;;;;;5058109;28;20486;-67
2021/01/08 08:36:37;;;;;;;19.67;9.50;;;;;;;;;;5057854;28;20559;-68
2021/01/08 08:39:06;;;;;;;16.70;9.30;;;;;;;;;;5057678;28;20481;-67
2021/01/08 08:41:34;;;;;;;19.27;9.20;;;;;;;;;;5057816;28;20511;-68
2021/01/08 08:44:03;;;;;;;15.17;8.83;;;;;;;;;;5057582;28;20450;-68
2021/01/08 08:46:46;;;;;;;15.03;8.17;;;;;;;;;;5057594;28;20442;-68
2021/01/08 08:49:14;;;;;;;16.63;9.23;;;;;;;;;;5058031;28;20472;-68
2021/01/08 08:51:43;;;;;;;16.57;10.13;;;;;;;;;;5068368;28;20448;-67
2021/01/08 08:54:10;;;;;;;16.03;8.90;;;;;;;;;;5057352;28;20479;-66
2021/01/08 08:56:41;;;;;;;20.77;9.33;;;;;;;;;;5054306;28;20445;-66
2021/01/08 08:59:07;;;;;;;18.30;9.73;;;;;;;;;;5057415;28;20495;-66
2021/01/08 09:01:38;;;;;;;17.53;8.30;;;;;;;;;;5056942;28;20520;-66
2021/01/08 09:04:05;;;;;;;15.47;8.67;;;;;;;;;;5055089;28;20449;-67
2021/01/08 09:06:35;;;;;;;14.43;8.17;;;;;;;;;;5054026;28;20852;-67
2021/01/08 09:09:08;;;;;;;14.33;8.07;;;;;;;;;;5056653;28;20971;-67
2021/01/08 09:11:39;;;;;;;15.17;8.60;;;;;;;;;;5057263;28;20453;-67
2021/01/08 09:14:11;;;;;;;15.87;7.90;;;;;;;;;;5057184;28;20480;-67
2021/01/08 09:16:43;;;;;;;15.47;8.03;;;;;;;;;;5057364;28;20839;-67
2021/01/08 09:19:12;;;;;;;16.03;8.93;;;;;;;;;;5057354;28;20445;-67
2021/01/08 09:21:41;;;;;;;14.80;9.10;;;;;;;;;;5057228;28;20506;-67
2021/01/08 09:24:13;;;;;;;18.30;9.57;;;;;;;;;;5057220;28;20999;-67
2021/01/08 09:26:43;;;;;;;16.57;9.13;;;;;;;;;;5057946;28;20449;-67
2021/01/08 09:29:11;;;;;;;18.40;9.87;;;;;;;;;;5057480;28;20453;-67
2021/01/08 09:31:38;;;;;;;15.43;9.20;;;;;;;;;;5054261;28;20466;-67
2021/01/08 09:34:06;;;;;;;15.27;8.17;;;;;;;;;;5056470;28;20539;-67
2021/01/08 09:36:34;;;;;;;17.80;8.80;;;;;;;;;;5057220;28;20450;-68
2021/01/08 09:39:03;;;;;;;15.27;9.33;;;;;;;;;;5054737;28;20461;-68
2021/01/08 09:41:33;;;;;;;16.10;9.23;;;;;;;;;;5054718;28;20793;-68
2021/01/08 09:44:04;;;;;;;18.80;10.53;;;;;;;;;;5055217;28;20441;-67
2021/01/08 09:46:31;;;;;;;15.00;8.60;;;;;;;;;;5057129;28;20441;-67
2021/01/08 09:49:06;;;;;;;14.37;7.80;;;;;;;;;;5057006;28;20956;-67
2021/01/08 09:51:33;;;;;;;12.70;8.40;;;;;;;;;;5061812;28;20512;-67
2021/01/08 09:54:01;;;;;;;17.03;9.67;;;;;;;;;;5061962;28;20441;-66
2021/01/08 09:56:28;;;;;;;13.97;8.23;;;;;;;;;;5057032;28;20477;-66
2021/01/08 09:59:09;;;;;;;18.33;9.33;;;;;;;;;;5056862;28;20536;-67
2021/01/08 10:01:51;;;;;;;15.33;9.73;;;;;;;;;;5054588;28;20456;-68
2021/01/08 10:04:29;;;;;;;14.97;8.07;;;;;;;;;;5056979;28;20465;-68
2021/01/08 10:06:57;;;;;;;21.50;9.47;;;;;;;;;;5057054;28;20480;-68
2021/01/08 10:09:24;;;;;;;19.13;8.90;;;;;;;;;;5056364;28;20528;-68
2021/01/08 10:11:58;;;;;;;19.57;9.77;;;;;;;;;;5056789;28;20495;-68
2021/01/08 10:14:29;;;;;;;17.40;9.13;;;;;;;;;;5056795;28;20525;-68
2021/01/08 10:17:07;;;;;;;17.10;9.20;;;;;;;;;;5056948;28;20854;-68
2021/01/08 10:19:35;;;;;;;14.73;8.67;;;;;;;;;;5060774;28;20453;-68
2021/01/08 10:22:03;;;;;;;16.53;8.77;;;;;;;;;;5060439;28;20535;-68
2021/01/08 10:24:30;;;;;;;18.63;9.40;;;;;;;;;;5060430;28;20461;-68
2021/01/08 10:26:58;;;;;;;18.60;10.23;;;;;;;;;;5060365;28;20521;-68
2021/01/08 10:29:31;;;;;;;23.37;9.83;;;;;;;;;;5060051;28;20450;-67
2021/01/08 10:32:04;;;;;;;19.80;9.33;;;;;;;;;;5060156;28;20441;-67
2021/01/08 10:34:34;;;;;;;17.37;9.53;;;;;;;;;;5060187;28;20481;-68
2021/01/08 10:37:01;;;;;;;16.13;9.03;;;;;;;;;;5059948;28;20437;-68
2021/01/08 10:39:28;;;;;;;19.60;9.80;;;;;;;;;;5060162;28;20453;-69
2021/01/08 10:41:55;;;;;;;17.90;9.70;;;;;;;;;;5059707;28;20476;-68
2021/01/08 10:44:28;;;;;;;11.47;7.87;;;;;;;;;;5060050;28;20466;-68
2021/01/08 10:46:55;;;;;;;18.23;9.93;;;;;;;;;;5059803;28;20445;-69
2021/01/08 10:49:23;;;;;;;13.37;7.67;;;;;;;;;;5060336;28;20449;-68
2021/01/08 10:51:53;;;;;;;16.30;8.87;;;;;;;;;;5046612;28;20920;-67
2021/01/08 10:54:20;;;;;;;18.60;9.30;;;;;;;;;;5059398;28;20525;-67
2021/01/08 10:56:47;;;;;;;15.87;8.87;;;;;;;;;;5059477;28;20445;-68
2021/01/08 10:59:15;;;;;;;13.17;8.00;;;;;;;;;;5059533;28;20483;-68
2021/01/08 11:01:43;;;;;;;15.77;8.07;;;;;;;;;;5059782;28;20450;-68
2021/01/08 11:04:11;;;;;;;13.53;7.30;;;;;;;;;;5059005;28;20546;-68
2021/01/08 11:06:39;;;;;;;12.03;7.27;;;;;;;;;;5059391;28;20798;-68
2021/01/08 11:09:07;;;;;;;14.10;7.60;;;;;;;;;;5059420;28;20450;-68
2021/01/08 11:11:33;;;;;;;13.17;7.83;;;;;;;;;;5044672;28;20493;-69
2021/01/08 11:14:01;;;;;;;9.60;6.73;;;;;;;;;;5042971;28;20458;-69
2021/01/08 11:16:28;;;;;;;14.20;7.67;;;;;;;;;;5046340;28;20990;-68
2021/01/08 11:18:55;;;;;;;11.17;7.47;;;;;;;;;;5057897;28;20549;-69
2021/01/08 11:21:22;;;;;;;12.80;8.67;;;;;;;;;;5034983;28;20470;-66
2021/01/08 11:23:49;;;;;;;14.13;8.07;;;;;;;;;;5040586;28;20500;-68
2021/01/08 11:26:23;;;;;;;14.73;7.77;;;;;;;;;;5035011;28;20886;-69
2021/01/08 11:28:50;;;;;;;10.93;6.60;;;;;;;;;;5038976;28;20895;-70
2021/01/08 11:31:18;;;;;;;15.60;7.53;;;;;;;;;;5058770;28;20448;-68
2021/01/08 11:33:45;;;;;;;15.83;7.90;;;;;;;;;;5051431;28;22353;-69
2021/01/08 11:36:12;;;;;;;10.17;6.70;;;;;;;;;;5030088;28;20490;-69
2021/01/08 11:38:39;;;;;;;13.03;6.47;;;;;;;;;;5036941;28;20485;-69
2021/01/08 11:41:06;;;;;;;12.73;7.10;;;;;;;;;;5044647;28;20466;-69
2021/01/08 11:43:34;;;;;;;11.87;5.73;;;;;;;;;;5046667;28;20468;-69
2021/01/08 11:46:02;;;;;;;11.23;7.30;;;;;;;;;;5048134;28;20484;-70
2021/01/08 11:48:28;;;;;;;9.57;5.97;;;;;;;;;;5048126;28;20460;-71
2021/01/08 11:50:55;;;;;;;12.33;7.33;;;;;;;;;;5039338;28;20463;-69
2021/01/08 11:53:22;;;;;;;10.80;6.80;;;;;;;;;;5038189;28;20463;-69
2021/01/08 11:55:49;;;;;;;10.67;6.97;;;;;;;;;;5029697;28;20494;-69
2021/01/08 11:58:17;;;;;;;10.03;6.03;;;;;;;;;;5031278;28;20455;-71
2021/01/08 12:00:44;;;;;;;11.93;6.83;;;;;;;;;;5032852;28;20453;-70
2021/01/08 12:03:11;;;;;;;9.27;6.30;;;;;;;;;;5057090;28;20461;-71
2021/01/08 12:05:41;;;;;;;10.50;5.87;;;;;;;;;;5055099;28;20476;-71
2021/01/08 12:08:08;;;;;;;9.10;5.63;;;;;;;;;;5057855;28;20477;-72
2021/01/08 12:10:36;;;;;;;8.27;5.87;;;;;;;;;;5050965;28;20461;-72
2021/01/08 12:13:03;;;;;;;8.77;6.67;;;;;;;;;;5038560;28;20903;-71
2021/01/08 12:15:29;;;;;;;10.30;5.40;;;;;;;;;;5028876;28;20503;-71
2021/01/08 12:17:57;;;;;;;10.50;5.87;;;;;;;;;;5048721;28;20461;-71
2021/01/08 12:20:24;;;;;;;7.17;4.90;;;;;;;;;;5048595;28;20454;-72
2021/01/08 12:22:51;;;;;;;9.30;5.20;;;;;;;;;;5056930;28;20560;-72
2021/01/08 12:25:18;;;;;;;7.03;4.93;;;;;;;;;;5056973;28;20479;-72
2021/01/08 12:27:46;;;;;;;7.37;4.60;;;;;;;;;;5056793;28;20875;-72
2021/01/08 12:30:15;;;;;;;6.30;4.37;;;;;;;;;;5034468;28;20469;-72
2021/01/08 12:32:42;;;;;;;7.33;5.03;;;;;;;;;;5059098;28;20434;-69
2021/01/08 12:35:11;;;;;;;8.90;5.37;;;;;;;;;;5041402;28;20534;-72
2021/01/08 12:37:38;;;;;;;8.03;5.43;;;;;;;;;;5055121;28;20484;-71
2021/01/08 12:40:05;;;;;;;7.07;4.87;;;;;;;;;;5031445;28;20484;-71
2021/01/08 12:42:32;;;;;;;10.13;5.73;;;;;;;;;;5050570;28;20962;-71
2021/01/08 12:45:00;;;;;;;7.97;5.33;;;;;;;;;;5036399;28;20488;-72
2021/01/08 12:47:27;;;;;;;9.77;5.33;;;;;;;;;;5055899;28;20463;-72
2021/01/08 12:49:54;;;;;;;9.03;5.47;;;;;;;;;;5047665;28;20461;-72
2021/01/08 12:52:22;;;;;;;10.53;5.83;;;;;;;;;;5053507;28;20552;-72
2021/01/08 12:54:49;;;;;;;8.37;5.67;;;;;;;;;;5050066;28;20488;-72
2021/01/08 12:57:15;;;;;;;11.97;6.73;;;;;;;;;;5054820;28;20440;-70
2021/01/08 12:59:42;;;;;;;10.83;6.53;;;;;;;;;;5050860;28;20464;-70
2021/01/08 13:02:09;;;;;;;10.60;5.93;;;;;;;;;;5028773;28;20473;-70
2021/01/08 13:04:36;;;;;;;10.57;5.67;;;;;;;;;;5054911;28;20477;-70
2021/01/08 13:07:04;;;;;;;10.97;6.03;;;;;;;;;;5057693;28;20449;-71
2021/01/08 13:09:32;;;;;;;9.00;5.47;;;;;;;;;;5036354;28;20480;-71
2021/01/08 13:11:59;;;;;;;8.43;4.40;;;;;;;;;;5040746;28;20532;-70
2021/01/08 13:14:26;;;;;;;8.90;5.93;;;;;;;;;;5034516;28;20496;-70
2021/01/08 13:16:53;;;;;;;5.43;4.67;;;;;;;;;;5046012;28;20482;-71
2021/01/08 13:19:20;;;;;;;9.47;4.80;;;;;;;;;;5042456;28;20541;-71
2021/01/08 13:21:48;;;;;;;6.47;4.70;;;;;;;;;;5050802;28;20453;-71
2021/01/08 13:24:15;;;;;;;6.87;4.93;;;;;;;;;;5057147;28;20471;-72
2021/01/08 13:26:43;;;;;;;8.07;4.73;;;;;;;;;;5052298;28;21447;-71
2021/01/08 13:29:10;;;;;;;10.63;4.53;;;;;;;;;;5037223;28;20481;-71
2021/01/08 13:31:37;;;;;;;9.33;4.80;;;;;;;;;;5049198;28;20456;-71
2021/01/08 13:34:04;;;;;;;6.67;4.50;;;;;;;;;;5048235;28;20460;-71
2021/01/08 13:36:35;;;;;;;7.83;4.27;;;;;;;;;;5057238;28;20487;-71
2021/01/08 13:39:04;;;;;;;9.00;4.77;;;;;;;;;;5039501;28;20596;-71
2021/01/08 13:41:30;;;;;;;8.33;4.90;;;;;;;;;;5051696;28;20465;-71
2021/01/08 13:43:59;;;;;;;7.43;5.30;;;;;;;;;;5054136;28;20471;-71
2021/01/08 13:46:26;;;;;;;7.30;4.43;;;;;;;;;;5041237;28;20545;-72
2021/01/08 13:48:54;;;;;;;8.73;5.27;;;;;;;;;;5047853;28;20457;-71
2021/01/08 13:51:21;;;;;;;6.67;5.27;;;;;;;;;;5050991;28;20818;-72
2021/01/08 13:53:48;;;;;;;8.97;6.10;;;;;;;;;;5055401;28;20548;-71
2021/01/08 13:56:15;;;;;;;8.57;5.93;;;;;;;;;;5060581;28;20485;-72
2021/01/08 13:58:42;;;;;;;9.63;5.93;;;;;;;;;;5046710;28;20509;-71
2021/01/08 14:01:14;;;;;;;9.17;5.93;;;;;;;;;;5034256;28;20457;-71
2021/01/08 14:03:41;;;;;;;7.97;5.30;;;;;;;;;;5047010;28;20464;-71
2021/01/08 14:06:08;;;;;;;10.07;5.97;;;;;;;;;;5060524;28;20539;-71
2021/01/08 14:08:35;;;;;;;12.73;6.67;;;;;;;;;;5049719;28;20497;-71
2021/01/08 14:11:02;;;;;;;8.47;6.37;;;;;;;;;;5055731;28;20465;-71
2021/01/08 14:13:29;;;;;;;10.50;6.70;;;;;;;;;;5054165;28;20483;-71
2021/01/08 14:15:56;;;;;;;9.63;6.80;;;;;;;;;;5054919;28;20519;-70
2021/01/08 14:18:24;;;;;;;16.03;7.77;;;;;;;;;;5058974;28;20441;-69
2021/01/08 14:20:51;;;;;;;12.53;6.70;;;;;;;;;;5037855;28;20446;-68
2021/01/08 14:23:18;;;;;;;10.97;7.07;;;;;;;;;;5052724;28;20484;-68
2021/01/08 14:25:45;;;;;;;9.80;6.00;;;;;;;;;;5056906;28;20461;-69
2021/01/08 14:28:12;;;;;;;10.27;6.60;;;;;;;;;;5052513;28;22601;-69
2021/01/08 14:30:39;;;;;;;12.13;7.47;;;;;;;;;;5038413;28;20477;-69
2021/01/08 14:33:06;;;;;;;9.53;6.23;;;;;;;;;;5051994;28;20472;-69
2021/01/08 14:35:34;;;;;;;12.40;7.00;;;;;;;;;;5059648;28;20577;-68